sensor_id;sensor_type;location;lat;lon;timestamp;temperature;humidity
19538;DHT22;9914;51.008;4.300;2023-07-16T00:02:00;20.00;99.90
19538;DHT22;9914;51.008;4.300;2023-07-16T00:04:25;20.00;99.90
19538;DHT22;9914;51.008;4.300;2023-07-16T00:06:51;20.00;99.90
19538;DHT22;9914;51.008;4.300;2023-07-16T00:09:17;19.90;99.90
19538;DHT22;9914;51.008;4.300;2023-07-16T00:11:42;19.80;99.90
19538;DHT22;9914;51.008;4.300;2023-07-16T00:14:10;19.80;99.90
19538;DHT22;9914;51.008;4.300;2023-07-16T00:16:35;19.80;99.90
19538;DHT22;9914;51.008;4.300;2023-07-16T00:19:01;19.80;99.90
19538;DHT22;9914;51.008;4.300;2023-07-16T00:21:27;19.80;99.90
19538;DHT22;9914;51.008;4.300;2023-07-16T00:23:52;19.80;99.90
19538;DHT22;9914;51.008;4.300;2023-07-16T00:26:18;19.80;99.90
19538;DHT22;9914;51.008;4.300;2023-07-16T00:28:43;19.90;99.90
19538;DHT22;9914;51.008;4.300;2023-07-16T00:31:10;19.90;99.90
19538;DHT22;9914;51.008;4.300;2023-07-16T00:33:36;19.70;99.90
19538;DHT22;9914;51.008;4.300;2023-07-16T00:36:01;19.70;99.90
19538;DHT22;9914;51.008;4.300;2023-07-16T00:38:27;19.70;99.90
19538;DHT22;9914;51.008;4.300;2023-07-16T00:40:52;19.60;99.90
19538;DHT22;9914;51.008;4.300;2023-07-16T00:43:18;19.50;99.90
19538;DHT22;9914;51.008;4.300;2023-07-16T00:45:45;19.40;99.90
19538;DHT22;9914;51.008;4.300;2023-07-16T00:48:11;19.20;99.90
19538;DHT22;9914;51.008;4.300;2023-07-16T00:50:38;19.20;99.90
19538;DHT22;9914;51.008;4.300;2023-07-16T00:53:08;19.10;99.90
19538;DHT22;9914;51.008;4.300;2023-07-16T00:55:36;19.00;99.90
19538;DHT22;9914;51.008;4.300;2023-07-16T00:58:03;19.00;99.90
19538;DHT22;9914;51.008;4.300;2023-07-16T01:00:31;19.00;99.90
19538;DHT22;9914;51.008;4.300;2023-07-16T01:02:57;18.90;99.90
19538;DHT22;9914;51.008;4.300;2023-07-16T01:05:24;18.90;99.90
19538;DHT22;9914;51.008;4.300;2023-07-16T01:08:04;18.80;99.90
19538;DHT22;9914;51.008;4.300;2023-07-16T01:10:32;18.80;99.90
19538;DHT22;9914;51.008;4.300;2023-07-16T01:12:58;18.70;99.90
19538;DHT22;9914;51.008;4.300;2023-07-16T01:15:25;18.70;99.90
19538;DHT22;9914;51.008;4.300;2023-07-16T01:17:50;18.70;99.90
19538;DHT22;9914;51.008;4.300;2023-07-16T01:20:16;18.70;99.90
19538;DHT22;9914;51.008;4.300;2023-07-16T01:28:23;18.60;99.90
19538;DHT22;9914;51.008;4.300;2023-07-16T01:30:54;18.60;99.90
19538;DHT22;9914;51.008;4.300;2023-07-16T01:33:21;18.60;99.90
19538;DHT22;9914;51.008;4.300;2023-07-16T01:35:47;18.50;99.90
19538;DHT22;9914;51.008;4.300;2023-07-16T01:38:14;18.50;99.90
19538;DHT22;9914;51.008;4.300;2023-07-16T01:40:41;18.60;99.90
19538;DHT22;9914;51.008;4.300;2023-07-16T01:43:07;18.50;99.90
19538;DHT22;9914;51.008;4.300;2023-07-16T01:45:32;18.50;99.90
19538;DHT22;9914;51.008;4.300;2023-07-16T01:48:16;18.30;99.90
19538;DHT22;9914;51.008;4.300;2023-07-16T01:50:46;18.30;99.90
19538;DHT22;9914;51.008;4.300;2023-07-16T01:53:12;18.20;99.90
19538;DHT22;9914;51.008;4.300;2023-07-16T01:55:37;18.20;99.90
19538;DHT22;9914;51.008;4.300;2023-07-16T01:58:03;18.20;99.90
19538;DHT22;9914;51.008;4.300;2023-07-16T02:00:28;18.20;99.90
19538;DHT22;9914;51.008;4.300;2023-07-16T02:02:54;18.30;99.90
19538;DHT22;9914;51.008;4.300;2023-07-16T02:05:20;18.20;99.90
19538;DHT22;9914;51.008;4.300;2023-07-16T02:07:45;18.30;99.90
19538;DHT22;9914;51.008;4.300;2023-07-16T02:10:11;18.30;99.90
19538;DHT22;9914;51.008;4.300;2023-07-16T02:12:36;18.40;99.90
19538;DHT22;9914;51.008;4.300;2023-07-16T02:15:02;18.30;99.90
19538;DHT22;9914;51.008;4.300;2023-07-16T02:17:28;18.30;99.90
19538;DHT22;9914;51.008;4.300;2023-07-16T02:19:54;18.40;99.90
19538;DHT22;9914;51.008;4.300;2023-07-16T02:22:20;18.40;99.90
19538;DHT22;9914;51.008;4.300;2023-07-16T02:24:45;18.40;99.90
19538;DHT22;9914;51.008;4.300;2023-07-16T02:27:11;18.40;99.90
19538;DHT22;9914;51.008;4.300;2023-07-16T02:29:36;18.30;99.90
19538;DHT22;9914;51.008;4.300;2023-07-16T02:32:02;18.20;99.90
19538;DHT22;9914;51.008;4.300;2023-07-16T02:34:28;18.20;99.90
19538;DHT22;9914;51.008;4.300;2023-07-16T02:36:53;18.20;99.90
19538;DHT22;9914;51.008;4.300;2023-07-16T02:39:19;18.10;99.90
19538;DHT22;9914;51.008;4.300;2023-07-16T02:41:44;18.10;99.90
19538;DHT22;9914;51.008;4.300;2023-07-16T02:44:10;18.00;99.90
19538;DHT22;9914;51.008;4.300;2023-07-16T02:46:35;18.00;99.90
19538;DHT22;9914;51.008;4.300;2023-07-16T02:49:02;18.00;99.90
19538;DHT22;9914;51.008;4.300;2023-07-16T02:51:28;17.90;99.90
19538;DHT22;9914;51.008;4.300;2023-07-16T02:53:54;17.80;99.90
19538;DHT22;9914;51.008;4.300;2023-07-16T02:56:19;17.80;99.90
19538;DHT22;9914;51.008;4.300;2023-07-16T02:58:45;17.80;99.90
19538;DHT22;9914;51.008;4.300;2023-07-16T03:01:12;17.80;99.90
19538;DHT22;9914;51.008;4.300;2023-07-16T03:03:37;17.70;99.90
19538;DHT22;9914;51.008;4.300;2023-07-16T03:06:03;17.80;99.90
19538;DHT22;9914;51.008;4.300;2023-07-16T03:08:29;17.80;99.90
19538;DHT22;9914;51.008;4.300;2023-07-16T03:10:57;17.80;99.90
19538;DHT22;9914;51.008;4.300;2023-07-16T03:13:22;17.80;99.90
19538;DHT22;9914;51.008;4.300;2023-07-16T03:15:48;17.80;99.90
19538;DHT22;9914;51.008;4.300;2023-07-16T03:18:14;17.80;99.90
19538;DHT22;9914;51.008;4.300;2023-07-16T03:20:39;17.90;99.90
19538;DHT22;9914;51.008;4.300;2023-07-16T03:23:05;18.00;99.90
19538;DHT22;9914;51.008;4.300;2023-07-16T03:25:31;17.90;99.90
19538;DHT22;9914;51.008;4.300;2023-07-16T03:27:56;17.80;99.90
19538;DHT22;9914;51.008;4.300;2023-07-16T03:30:22;17.80;99.90
19538;DHT22;9914;51.008;4.300;2023-07-16T03:32:47;17.80;99.90
19538;DHT22;9914;51.008;4.300;2023-07-16T03:35:13;17.80;99.90
19538;DHT22;9914;51.008;4.300;2023-07-16T03:37:39;17.80;99.90
19538;DHT22;9914;51.008;4.300;2023-07-16T03:40:15;17.80;99.90
19538;DHT22;9914;51.008;4.300;2023-07-16T03:42:41;17.90;99.90
19538;DHT22;9914;51.008;4.300;2023-07-16T03:45:08;17.90;99.90
19538;DHT22;9914;51.008;4.300;2023-07-16T03:47:34;17.90;99.90
19538;DHT22;9914;51.008;4.300;2023-07-16T03:49:59;17.90;99.90
19538;DHT22;9914;51.008;4.300;2023-07-16T03:52:25;17.80;99.90
19538;DHT22;9914;51.008;4.300;2023-07-16T03:54:52;17.80;99.90
19538;DHT22;9914;51.008;4.300;2023-07-16T03:57:17;17.80;99.90
19538;DHT22;9914;51.008;4.300;2023-07-16T03:59:43;17.80;99.90
19538;DHT22;9914;51.008;4.300;2023-07-16T04:02:09;17.80;99.90
19538;DHT22;9914;51.008;4.300;2023-07-16T04:04:34;17.70;99.90
19538;DHT22;9914;51.008;4.300;2023-07-16T04:07:00;17.80;99.90
19538;DHT22;9914;51.008;4.300;2023-07-16T04:09:25;17.80;99.90
19538;DHT22;9914;51.008;4.300;2023-07-16T04:11:51;17.70;99.90
19538;DHT22;9914;51.008;4.300;2023-07-16T04:14:17;17.70;99.90
19538;DHT22;9914;51.008;4.300;2023-07-16T04:16:42;17.70;99.90
19538;DHT22;9914;51.008;4.300;2023-07-16T04:19:11;17.60;99.90
19538;DHT22;9914;51.008;4.300;2023-07-16T04:21:37;17.70;99.90
19538;DHT22;9914;51.008;4.300;2023-07-16T04:24:03;17.70;99.90
19538;DHT22;9914;51.008;4.300;2023-07-16T04:26:29;17.80;99.90
19538;DHT22;9914;51.008;4.300;2023-07-16T04:28:54;17.80;99.90
19538;DHT22;9914;51.008;4.300;2023-07-16T04:31:20;17.80;99.90
19538;DHT22;9914;51.008;4.300;2023-07-16T04:33:45;17.80;99.90
19538;DHT22;9914;51.008;4.300;2023-07-16T04:36:11;17.80;99.90
19538;DHT22;9914;51.008;4.300;2023-07-16T04:38:37;17.70;99.90
19538;DHT22;9914;51.008;4.300;2023-07-16T04:41:02;17.70;99.90
19538;DHT22;9914;51.008;4.300;2023-07-16T04:43:28;17.70;99.90
19538;DHT22;9914;51.008;4.300;2023-07-16T04:45:53;17.80;99.90
19538;DHT22;9914;51.008;4.300;2023-07-16T04:48:20;17.80;99.90
19538;DHT22;9914;51.008;4.300;2023-07-16T04:50:46;17.80;99.90
19538;DHT22;9914;51.008;4.300;2023-07-16T04:53:11;17.80;99.90
19538;DHT22;9914;51.008;4.300;2023-07-16T04:55:38;17.70;99.90
19538;DHT22;9914;51.008;4.300;2023-07-16T04:58:05;17.80;99.90
19538;DHT22;9914;51.008;4.300;2023-07-16T05:00:32;17.90;99.90
19538;DHT22;9914;51.008;4.300;2023-07-16T05:02:58;17.90;99.90
19538;DHT22;9914;51.008;4.300;2023-07-16T05:05:24;18.00;99.90
19538;DHT22;9914;51.008;4.300;2023-07-16T05:07:50;18.00;99.90
19538;DHT22;9914;51.008;4.300;2023-07-16T05:10:15;17.80;99.90
19538;DHT22;9914;51.008;4.300;2023-07-16T05:12:41;17.90;99.90
19538;DHT22;9914;51.008;4.300;2023-07-16T05:15:07;17.90;99.90
19538;DHT22;9914;51.008;4.300;2023-07-16T05:17:33;17.90;99.90
19538;DHT22;9914;51.008;4.300;2023-07-16T05:19:59;17.80;99.90
19538;DHT22;9914;51.008;4.300;2023-07-16T05:22:24;17.90;99.90
19538;DHT22;9914;51.008;4.300;2023-07-16T05:24:50;17.90;99.90
19538;DHT22;9914;51.008;4.300;2023-07-16T05:27:16;18.00;99.90
19538;DHT22;9914;51.008;4.300;2023-07-16T05:29:42;18.00;99.90
19538;DHT22;9914;51.008;4.300;2023-07-16T05:32:08;18.00;99.90
19538;DHT22;9914;51.008;4.300;2023-07-16T05:34:33;18.10;99.90
19538;DHT22;9914;51.008;4.300;2023-07-16T05:36:59;18.20;99.90
19538;DHT22;9914;51.008;4.300;2023-07-16T05:39:25;18.30;99.90
19538;DHT22;9914;51.008;4.300;2023-07-16T05:41:50;18.20;99.90
19538;DHT22;9914;51.008;4.300;2023-07-16T05:44:16;18.30;99.90
19538;DHT22;9914;51.008;4.300;2023-07-16T05:46:42;18.20;99.90
19538;DHT22;9914;51.008;4.300;2023-07-16T05:49:08;18.30;99.90
19538;DHT22;9914;51.008;4.300;2023-07-16T05:51:33;18.40;99.90
19538;DHT22;9914;51.008;4.300;2023-07-16T05:53:59;18.50;99.90
19538;DHT22;9914;51.008;4.300;2023-07-16T05:56:24;18.50;99.90
19538;DHT22;9914;51.008;4.300;2023-07-16T05:58:50;18.50;99.90
19538;DHT22;9914;51.008;4.300;2023-07-16T06:01:16;18.50;99.90
19538;DHT22;9914;51.008;4.300;2023-07-16T06:03:41;18.50;99.90
19538;DHT22;9914;51.008;4.300;2023-07-16T06:06:10;18.50;99.90
19538;DHT22;9914;51.008;4.300;2023-07-16T06:08:35;18.60;99.90
19538;DHT22;9914;51.008;4.300;2023-07-16T06:11:01;18.70;99.90
19538;DHT22;9914;51.008;4.300;2023-07-16T06:13:27;18.70;99.90
19538;DHT22;9914;51.008;4.300;2023-07-16T06:15:52;18.70;99.90
19538;DHT22;9914;51.008;4.300;2023-07-16T06:18:18;18.90;99.90
19538;DHT22;9914;51.008;4.300;2023-07-16T06:20:44;19.00;99.90
19538;DHT22;9914;51.008;4.300;2023-07-16T06:23:13;19.00;99.90
19538;DHT22;9914;51.008;4.300;2023-07-16T06:25:41;18.70;99.90
19538;DHT22;9914;51.008;4.300;2023-07-16T06:28:12;18.70;99.90
19538;DHT22;9914;51.008;4.300;2023-07-16T06:30:38;18.80;99.90
19538;DHT22;9914;51.008;4.300;2023-07-16T06:33:04;18.80;99.90
19538;DHT22;9914;51.008;4.300;2023-07-16T06:35:30;18.90;99.90
19538;DHT22;9914;51.008;4.300;2023-07-16T06:37:55;19.10;99.90
19538;DHT22;9914;51.008;4.300;2023-07-16T06:40:21;19.20;99.90
19538;DHT22;9914;51.008;4.300;2023-07-16T06:42:47;19.30;99.90
19538;DHT22;9914;51.008;4.300;2023-07-16T06:45:12;19.30;99.90
19538;DHT22;9914;51.008;4.300;2023-07-16T06:47:38;19.30;99.90
19538;DHT22;9914;51.008;4.300;2023-07-16T06:50:04;19.30;99.90
19538;DHT22;9914;51.008;4.300;2023-07-16T06:52:30;19.20;99.90
19538;DHT22;9914;51.008;4.300;2023-07-16T06:54:56;19.20;99.90
19538;DHT22;9914;51.008;4.300;2023-07-16T06:57:23;19.10;99.90
19538;DHT22;9914;51.008;4.300;2023-07-16T06:59:48;19.20;99.90
19538;DHT22;9914;51.008;4.300;2023-07-16T07:02:16;19.40;99.90
19538;DHT22;9914;51.008;4.300;2023-07-16T07:04:41;19.30;99.90
19538;DHT22;9914;51.008;4.300;2023-07-16T07:07:07;19.40;99.90
19538;DHT22;9914;51.008;4.300;2023-07-16T07:09:33;19.50;99.90
19538;DHT22;9914;51.008;4.300;2023-07-16T07:11:58;19.70;99.90
19538;DHT22;9914;51.008;4.300;2023-07-16T07:14:24;19.70;99.90
19538;DHT22;9914;51.008;4.300;2023-07-16T07:16:49;19.80;99.90
19538;DHT22;9914;51.008;4.300;2023-07-16T07:19:15;20.00;99.90
19538;DHT22;9914;51.008;4.300;2023-07-16T07:21:41;20.00;99.90
19538;DHT22;9914;51.008;4.300;2023-07-16T07:24:06;20.00;99.90
19538;DHT22;9914;51.008;4.300;2023-07-16T07:26:32;20.10;99.90
19538;DHT22;9914;51.008;4.300;2023-07-16T07:28:57;20.10;99.90
19538;DHT22;9914;51.008;4.300;2023-07-16T07:31:23;20.30;99.90
19538;DHT22;9914;51.008;4.300;2023-07-16T07:33:49;20.40;99.90
19538;DHT22;9914;51.008;4.300;2023-07-16T07:36:14;20.40;99.90
19538;DHT22;9914;51.008;4.300;2023-07-16T07:38:40;20.40;99.90
19538;DHT22;9914;51.008;4.300;2023-07-16T07:41:06;20.40;99.90
19538;DHT22;9914;51.008;4.300;2023-07-16T07:43:32;20.40;99.90
19538;DHT22;9914;51.008;4.300;2023-07-16T07:45:57;20.40;99.90
19538;DHT22;9914;51.008;4.300;2023-07-16T07:48:23;20.20;99.90
19538;DHT22;9914;51.008;4.300;2023-07-16T07:50:48;20.20;99.90
19538;DHT22;9914;51.008;4.300;2023-07-16T07:53:14;20.20;99.90
19538;DHT22;9914;51.008;4.300;2023-07-16T07:55:40;20.20;99.90
19538;DHT22;9914;51.008;4.300;2023-07-16T07:58:07;20.40;99.90
19538;DHT22;9914;51.008;4.300;2023-07-16T08:00:33;20.70;99.90
19538;DHT22;9914;51.008;4.300;2023-07-16T08:02:58;20.80;99.90
19538;DHT22;9914;51.008;4.300;2023-07-16T08:05:24;20.90;99.90
19538;DHT22;9914;51.008;4.300;2023-07-16T08:07:50;21.10;99.90
19538;DHT22;9914;51.008;4.300;2023-07-16T08:10:17;21.10;99.90
19538;DHT22;9914;51.008;4.300;2023-07-16T08:12:42;21.30;99.90
19538;DHT22;9914;51.008;4.300;2023-07-16T08:15:10;21.50;99.90
19538;DHT22;9914;51.008;4.300;2023-07-16T08:17:40;21.50;99.90
19538;DHT22;9914;51.008;4.300;2023-07-16T08:20:06;21.50;99.90
19538;DHT22;9914;51.008;4.300;2023-07-16T08:22:32;21.40;99.90
19538;DHT22;9914;51.008;4.300;2023-07-16T08:24:58;21.60;99.90
19538;DHT22;9914;51.008;4.300;2023-07-16T08:27:24;21.60;99.90
19538;DHT22;9914;51.008;4.300;2023-07-16T08:29:49;21.60;99.90
19538;DHT22;9914;51.008;4.300;2023-07-16T08:32:15;21.60;99.90
19538;DHT22;9914;51.008;4.300;2023-07-16T08:34:40;21.60;99.90
19538;DHT22;9914;51.008;4.300;2023-07-16T08:37:06;21.80;99.90
19538;DHT22;9914;51.008;4.300;2023-07-16T08:39:32;22.30;99.90
19538;DHT22;9914;51.008;4.300;2023-07-16T08:41:57;22.40;99.90
19538;DHT22;9914;51.008;4.300;2023-07-16T08:44:23;22.40;99.90
19538;DHT22;9914;51.008;4.300;2023-07-16T08:46:50;22.40;99.90
19538;DHT22;9914;51.008;4.300;2023-07-16T08:49:18;22.70;99.90
19538;DHT22;9914;51.008;4.300;2023-07-16T08:51:47;22.80;99.90
19538;DHT22;9914;51.008;4.300;2023-07-16T08:54:13;22.70;99.90
19538;DHT22;9914;51.008;4.300;2023-07-16T08:56:43;22.60;99.90
19538;DHT22;9914;51.008;4.300;2023-07-16T08:59:10;22.30;99.90
19538;DHT22;9914;51.008;4.300;2023-07-16T09:01:37;22.40;99.90
19538;DHT22;9914;51.008;4.300;2023-07-16T09:04:03;22.70;99.90
19538;DHT22;9914;51.008;4.300;2023-07-16T09:06:28;22.80;99.90
19538;DHT22;9914;51.008;4.300;2023-07-16T09:08:54;22.70;99.90
19538;DHT22;9914;51.008;4.300;2023-07-16T09:11:21;22.70;99.90
19538;DHT22;9914;51.008;4.300;2023-07-16T09:13:48;22.70;99.90
19538;DHT22;9914;51.008;4.300;2023-07-16T09:16:14;22.80;99.90
19538;DHT22;9914;51.008;4.300;2023-07-16T09:18:42;23.00;99.90
19538;DHT22;9914;51.008;4.300;2023-07-16T09:21:08;23.10;99.90
19538;DHT22;9914;51.008;4.300;2023-07-16T09:23:35;23.00;99.90
19538;DHT22;9914;51.008;4.300;2023-07-16T09:26:00;22.80;99.90
19538;DHT22;9914;51.008;4.300;2023-07-16T09:28:26;22.90;99.90
19538;DHT22;9914;51.008;4.300;2023-07-16T09:30:52;23.10;99.90
19538;DHT22;9914;51.008;4.300;2023-07-16T09:33:20;23.10;99.90
19538;DHT22;9914;51.008;4.300;2023-07-16T09:35:49;22.90;99.90
19538;DHT22;9914;51.008;4.300;2023-07-16T09:38:15;22.70;99.90
19538;DHT22;9914;51.008;4.300;2023-07-16T09:40:41;22.60;99.90
19538;DHT22;9914;51.008;4.300;2023-07-16T09:43:11;22.30;99.90
19538;DHT22;9914;51.008;4.300;2023-07-16T09:45:37;22.20;99.90
19538;DHT22;9914;51.008;4.300;2023-07-16T09:48:04;22.30;99.90
19538;DHT22;9914;51.008;4.300;2023-07-16T09:50:32;22.60;99.90
19538;DHT22;9914;51.008;4.300;2023-07-16T09:52:58;22.60;99.90
19538;DHT22;9914;51.008;4.300;2023-07-16T09:55:24;22.80;99.90
19538;DHT22;9914;51.008;4.300;2023-07-16T09:57:53;23.10;99.90
19538;DHT22;9914;51.008;4.300;2023-07-16T10:00:21;23.40;99.90
19538;DHT22;9914;51.008;4.300;2023-07-16T10:02:46;23.50;99.90
19538;DHT22;9914;51.008;4.300;2023-07-16T10:05:17;23.30;99.90
19538;DHT22;9914;51.008;4.300;2023-07-16T10:07:50;23.30;99.90
19538;DHT22;9914;51.008;4.300;2023-07-16T10:10:16;23.10;99.90
19538;DHT22;9914;51.008;4.300;2023-07-16T10:12:53;22.60;99.90
19538;DHT22;9914;51.008;4.300;2023-07-16T10:15:28;22.60;99.90
19538;DHT22;9914;51.008;4.300;2023-07-16T10:17:55;22.40;99.90
19538;DHT22;9914;51.008;4.300;2023-07-16T10:20:35;22.40;99.90
19538;DHT22;9914;51.008;4.300;2023-07-16T10:23:15;22.30;99.90
19538;DHT22;9914;51.008;4.300;2023-07-16T10:26:02;22.10;99.90
19538;DHT22;9914;51.008;4.300;2023-07-16T10:28:32;22.00;99.90
19538;DHT22;9914;51.008;4.300;2023-07-16T10:30:58;22.20;99.90
19538;DHT22;9914;51.008;4.300;2023-07-16T10:33:24;22.70;99.90
19538;DHT22;9914;51.008;4.300;2023-07-16T10:35:50;22.80;99.90
19538;DHT22;9914;51.008;4.300;2023-07-16T10:38:16;22.60;99.90
19538;DHT22;9914;51.008;4.300;2023-07-16T10:40:43;22.40;99.90
19538;DHT22;9914;51.008;4.300;2023-07-16T10:43:09;22.40;99.90
19538;DHT22;9914;51.008;4.300;2023-07-16T10:45:35;22.40;99.90
19538;DHT22;9914;51.008;4.300;2023-07-16T10:48:00;22.60;99.90
19538;DHT22;9914;51.008;4.300;2023-07-16T10:50:26;22.30;99.90
19538;DHT22;9914;51.008;4.300;2023-07-16T10:52:56;22.20;99.90
19538;DHT22;9914;51.008;4.300;2023-07-16T10:55:22;22.10;99.90
19538;DHT22;9914;51.008;4.300;2023-07-16T10:57:49;22.10;99.90
19538;DHT22;9914;51.008;4.300;2023-07-16T11:00:16;22.00;99.90
19538;DHT22;9914;51.008;4.300;2023-07-16T11:02:43;21.90;99.90
19538;DHT22;9914;51.008;4.300;2023-07-16T11:05:12;21.90;99.90
19538;DHT22;9914;51.008;4.300;2023-07-16T11:07:43;22.10;99.90
19538;DHT22;9914;51.008;4.300;2023-07-16T11:10:09;22.30;99.90
19538;DHT22;9914;51.008;4.300;2023-07-16T11:12:34;22.70;99.90
19538;DHT22;9914;51.008;4.300;2023-07-16T11:15:00;22.90;99.90
19538;DHT22;9914;51.008;4.300;2023-07-16T11:17:26;23.20;99.90
19538;DHT22;9914;51.008;4.300;2023-07-16T11:19:53;23.70;99.90
19538;DHT22;9914;51.008;4.300;2023-07-16T11:22:19;23.90;99.90
19538;DHT22;9914;51.008;4.300;2023-07-16T11:24:50;23.80;99.90
19538;DHT22;9914;51.008;4.300;2023-07-16T11:27:18;23.90;99.90
19538;DHT22;9914;51.008;4.300;2023-07-16T11:29:53;24.00;99.90
19538;DHT22;9914;51.008;4.300;2023-07-16T11:35:01;23.80;99.90
19538;DHT22;9914;51.008;4.300;2023-07-16T11:37:28;23.60;99.90
19538;DHT22;9914;51.008;4.300;2023-07-16T11:39:58;23.70;99.90
19538;DHT22;9914;51.008;4.300;2023-07-16T11:42:28;23.90;99.90
19538;DHT22;9914;51.008;4.300;2023-07-16T11:44:54;24.00;99.90
19538;DHT22;9914;51.008;4.300;2023-07-16T11:47:20;23.90;99.90
19538;DHT22;9914;51.008;4.300;2023-07-16T11:49:47;23.90;99.90
19538;DHT22;9914;51.008;4.300;2023-07-16T11:52:13;24.10;99.90
19538;DHT22;9914;51.008;4.300;2023-07-16T11:54:38;24.10;99.90
19538;DHT22;9914;51.008;4.300;2023-07-16T11:57:04;24.10;99.90
19538;DHT22;9914;51.008;4.300;2023-07-16T11:59:30;24.50;99.90
19538;DHT22;9914;51.008;4.300;2023-07-16T12:01:56;24.70;99.90
19538;DHT22;9914;51.008;4.300;2023-07-16T12:04:21;25.20;99.90
19538;DHT22;9914;51.008;4.300;2023-07-16T12:06:47;25.20;99.90
19538;DHT22;9914;51.008;4.300;2023-07-16T12:09:12;25.00;99.90
19538;DHT22;9914;51.008;4.300;2023-07-16T12:11:38;25.00;99.90
19538;DHT22;9914;51.008;4.300;2023-07-16T12:14:05;25.20;99.90
19538;DHT22;9914;51.008;4.300;2023-07-16T12:16:31;25.20;99.90
19538;DHT22;9914;51.008;4.300;2023-07-16T12:18:57;25.20;99.90
19538;DHT22;9914;51.008;4.300;2023-07-16T12:21:22;25.30;99.90
19538;DHT22;9914;51.008;4.300;2023-07-16T12:23:48;25.20;99.90
19538;DHT22;9914;51.008;4.300;2023-07-16T12:26:14;25.20;99.90
19538;DHT22;9914;51.008;4.300;2023-07-16T12:28:40;25.10;99.90
19538;DHT22;9914;51.008;4.300;2023-07-16T12:31:05;24.90;99.90
19538;DHT22;9914;51.008;4.300;2023-07-16T12:33:31;24.90;99.90
19538;DHT22;9914;51.008;4.300;2023-07-16T12:35:56;24.80;99.90
19538;DHT22;9914;51.008;4.300;2023-07-16T12:38:22;24.80;99.90
19538;DHT22;9914;51.008;4.300;2023-07-16T12:40:48;24.90;99.90
19538;DHT22;9914;51.008;4.300;2023-07-16T12:43:13;25.10;99.90
19538;DHT22;9914;51.008;4.300;2023-07-16T12:45:39;25.10;99.90
19538;DHT22;9914;51.008;4.300;2023-07-16T12:48:05;24.90;99.90
19538;DHT22;9914;51.008;4.300;2023-07-16T12:50:31;24.60;99.90
19538;DHT22;9914;51.008;4.300;2023-07-16T12:52:57;24.50;99.90
19538;DHT22;9914;51.008;4.300;2023-07-16T12:55:22;24.50;99.90
19538;DHT22;9914;51.008;4.300;2023-07-16T12:57:49;24.60;99.90
19538;DHT22;9914;51.008;4.300;2023-07-16T13:00:15;24.80;99.90
19538;DHT22;9914;51.008;4.300;2023-07-16T13:02:40;25.00;99.90
19538;DHT22;9914;51.008;4.300;2023-07-16T13:05:06;25.10;99.90
19538;DHT22;9914;51.008;4.300;2023-07-16T13:07:32;25.00;99.90
19538;DHT22;9914;51.008;4.300;2023-07-16T13:09:58;24.60;99.90
19538;DHT22;9914;51.008;4.300;2023-07-16T13:12:24;24.70;99.90
19538;DHT22;9914;51.008;4.300;2023-07-16T13:14:50;24.60;99.90
19538;DHT22;9914;51.008;4.300;2023-07-16T13:17:15;24.90;99.90
19538;DHT22;9914;51.008;4.300;2023-07-16T13:19:43;25.20;99.90
19538;DHT22;9914;51.008;4.300;2023-07-16T13:22:08;25.40;99.90
19538;DHT22;9914;51.008;4.300;2023-07-16T13:24:34;25.30;99.90
19538;DHT22;9914;51.008;4.300;2023-07-16T13:27:00;25.00;99.90
19538;DHT22;9914;51.008;4.300;2023-07-16T13:29:25;25.00;99.90
19538;DHT22;9914;51.008;4.300;2023-07-16T13:31:51;24.60;99.90
19538;DHT22;9914;51.008;4.300;2023-07-16T13:34:16;24.30;99.90
19538;DHT22;9914;51.008;4.300;2023-07-16T13:36:42;24.20;99.90
19538;DHT22;9914;51.008;4.300;2023-07-16T13:39:08;24.00;99.90
19538;DHT22;9914;51.008;4.300;2023-07-16T13:41:33;24.00;99.90
19538;DHT22;9914;51.008;4.300;2023-07-16T13:44:00;23.80;99.90
19538;DHT22;9914;51.008;4.300;2023-07-16T13:46:25;24.00;99.90
19538;DHT22;9914;51.008;4.300;2023-07-16T13:48:51;24.00;99.90
19538;DHT22;9914;51.008;4.300;2023-07-16T13:51:17;24.00;99.90
19538;DHT22;9914;51.008;4.300;2023-07-16T13:53:42;24.00;99.90
19538;DHT22;9914;51.008;4.300;2023-07-16T13:56:08;24.10;99.90
19538;DHT22;9914;51.008;4.300;2023-07-16T13:58:33;24.40;99.90
19538;DHT22;9914;51.008;4.300;2023-07-16T14:00:59;24.40;99.90
19538;DHT22;9914;51.008;4.300;2023-07-16T14:03:25;24.10;99.90
19538;DHT22;9914;51.008;4.300;2023-07-16T14:05:51;23.90;99.90
19538;DHT22;9914;51.008;4.300;2023-07-16T14:08:17;23.90;99.90
19538;DHT22;9914;51.008;4.300;2023-07-16T14:10:43;24.20;99.90
19538;DHT22;9914;51.008;4.300;2023-07-16T14:13:08;24.30;99.90
19538;DHT22;9914;51.008;4.300;2023-07-16T14:15:34;24.50;99.90
19538;DHT22;9914;51.008;4.300;2023-07-16T14:18:00;25.00;99.90
19538;DHT22;9914;51.008;4.300;2023-07-16T14:20:25;25.20;99.90
19538;DHT22;9914;51.008;4.300;2023-07-16T14:22:51;25.10;99.90
19538;DHT22;9914;51.008;4.300;2023-07-16T14:25:18;25.20;99.90
19538;DHT22;9914;51.008;4.300;2023-07-16T14:27:43;25.40;99.90
19538;DHT22;9914;51.008;4.300;2023-07-16T14:30:09;25.40;99.90
19538;DHT22;9914;51.008;4.300;2023-07-16T14:32:36;25.10;99.90
19538;DHT22;9914;51.008;4.300;2023-07-16T14:35:01;25.20;99.90
19538;DHT22;9914;51.008;4.300;2023-07-16T14:37:27;25.30;99.90
19538;DHT22;9914;51.008;4.300;2023-07-16T14:39:53;25.40;99.90
19538;DHT22;9914;51.008;4.300;2023-07-16T14:42:18;25.20;99.90
19538;DHT22;9914;51.008;4.300;2023-07-16T14:44:44;25.10;99.90
19538;DHT22;9914;51.008;4.300;2023-07-16T14:47:10;25.20;99.90
19538;DHT22;9914;51.008;4.300;2023-07-16T14:49:35;25.60;99.90
19538;DHT22;9914;51.008;4.300;2023-07-16T14:52:01;26.10;99.90
19538;DHT22;9914;51.008;4.300;2023-07-16T14:54:26;26.40;99.90
19538;DHT22;9914;51.008;4.300;2023-07-16T14:56:52;26.40;99.90
19538;DHT22;9914;51.008;4.300;2023-07-16T14:59:18;26.30;99.90
19538;DHT22;9914;51.008;4.300;2023-07-16T15:01:43;26.40;99.90
19538;DHT22;9914;51.008;4.300;2023-07-16T15:04:09;26.50;99.90
19538;DHT22;9914;51.008;4.300;2023-07-16T15:06:35;26.30;99.90
19538;DHT22;9914;51.008;4.300;2023-07-16T15:09:00;26.20;99.90
19538;DHT22;9914;51.008;4.300;2023-07-16T15:11:26;26.10;99.90
19538;DHT22;9914;51.008;4.300;2023-07-16T15:13:52;26.40;99.90
19538;DHT22;9914;51.008;4.300;2023-07-16T15:16:18;26.20;99.90
19538;DHT22;9914;51.008;4.300;2023-07-16T15:18:44;26.50;99.90
19538;DHT22;9914;51.008;4.300;2023-07-16T15:21:10;26.70;99.90
19538;DHT22;9914;51.008;4.300;2023-07-16T15:23:36;27.00;99.90
19538;DHT22;9914;51.008;4.300;2023-07-16T15:26:04;27.20;99.90
19538;DHT22;9914;51.008;4.300;2023-07-16T15:28:31;27.80;99.90
19538;DHT22;9914;51.008;4.300;2023-07-16T15:31:00;27.70;99.90
19538;DHT22;9914;51.008;4.300;2023-07-16T15:33:26;27.20;99.90
19538;DHT22;9914;51.008;4.300;2023-07-16T15:35:51;26.70;99.90
19538;DHT22;9914;51.008;4.300;2023-07-16T15:38:17;26.50;99.90
19538;DHT22;9914;51.008;4.300;2023-07-16T15:40:43;26.60;99.90
19538;DHT22;9914;51.008;4.300;2023-07-16T15:43:10;26.80;99.90
19538;DHT22;9914;51.008;4.300;2023-07-16T15:45:35;27.00;99.90
19538;DHT22;9914;51.008;4.300;2023-07-16T15:48:01;27.00;99.90